Аэропорт: Актау. Актау

ICAO: UATE

METAR:
2021-04-21 21:00:00
UATE 212100Z 13009MPS CAVOK 17/M05 Q1019 R12/0///70 NOSIG RMK QFE762/1016
METAR:
2021-04-21 17:03:00
TAF UATE 211703Z 2118/2218 10006G12MPS 9999 SCT033CB TX19/2209Z TN14/2202Z TEMPO 2118/2122 VRB03MPS TEMPO 2203/2211 14012G18MPS 3100 BLDU SCT011 BECMG 2211/2213 20007G13MPS